Time;durP1;ratioP1;P1;durP2;ratioP2;P2;SDS_P1;SDS_P2;PMS_P1;PMS_P2;Temp;Humidity;BMP_temperature;BMP_pressure;BME280_temperature;BME280_humidity;BME280_pressure;Samples;Min_cycle;Max_cycle;Signal;HPM_P1;HPM_P2
2023/09/03 00:00:49;;;;;;;4.77;3.00;;;;;;;;;;5070997;28;20513;-60
2023/09/03 00:03:16;;;;;;;3.80;3.00;;;;;;;;;;5070364;28;20490;-58
2023/09/03 00:05:49;;;;;;;7.47;3.47;;;;;;;;;;5070849;28;21058;-58
2023/09/03 00:08:16;;;;;;;6.40;3.57;;;;;;;;;;5069399;28;20472;-60
2023/09/03 00:10:43;;;;;;;4.63;3.27;;;;;;;;;;5070795;28;20539;-58
2023/09/03 00:13:10;;;;;;;4.00;2.73;;;;;;;;;;5070526;28;21022;-57
2023/09/03 00:15:39;;;;;;;5.77;2.97;;;;;;;;;;5069229;28;20476;-59
2023/09/03 00:18:08;;;;;;;7.63;3.33;;;;;;;;;;5069705;28;20444;-61
2023/09/03 00:20:35;;;;;;;3.50;3.00;;;;;;;;;;5069909;28;21032;-60
2023/09/03 00:23:02;;;;;;;4.37;2.97;;;;;;;;;;5070546;28;20865;-58
2023/09/03 00:25:30;;;;;;;3.67;3.00;;;;;;;;;;5068439;28;20524;-60
2023/09/03 00:27:57;;;;;;;3.70;2.97;;;;;;;;;;5069686;28;20471;-59
2023/09/03 00:30:24;;;;;;;4.90;3.03;;;;;;;;;;5070397;28;20544;-58
2023/09/03 00:32:51;;;;;;;3.57;2.70;;;;;;;;;;5070016;28;20472;-58
2023/09/03 00:35:20;;;;;;;4.90;3.37;;;;;;;;;;5069878;28;20511;-59
2023/09/03 00:37:47;;;;;;;4.13;3.00;;;;;;;;;;5069697;28;20467;-60
2023/09/03 00:40:14;;;;;;;4.13;2.83;;;;;;;;;;5068850;28;21021;-59
2023/09/03 00:42:42;;;;;;;5.03;2.77;;;;;;;;;;5068598;28;20915;-61
2023/09/03 00:45:09;;;;;;;3.70;3.03;;;;;;;;;;5069410;28;20519;-59
2023/09/03 00:47:37;;;;;;;5.87;3.27;;;;;;;;;;5068565;28;20444;-59
2023/09/03 00:50:05;;;;;;;4.70;3.00;;;;;;;;;;5068320;28;20555;-60
2023/09/03 00:52:33;;;;;;;3.37;2.53;;;;;;;;;;5068681;28;20480;-58
2023/09/03 00:55:01;;;;;;;4.17;2.90;;;;;;;;;;5069846;28;20530;-61
2023/09/03 00:57:29;;;;;;;4.80;3.00;;;;;;;;;;5070155;28;20526;-58
2023/09/03 00:59:56;;;;;;;4.13;3.37;;;;;;;;;;5069312;28;20552;-58
2023/09/03 01:02:24;;;;;;;3.67;2.70;;;;;;;;;;5067084;28;20527;-61
2023/09/03 01:04:51;;;;;;;3.90;2.80;;;;;;;;;;5068943;28;20507;-59
2023/09/03 01:07:19;;;;;;;5.90;3.47;;;;;;;;;;5069073;28;20820;-59
2023/09/03 01:09:47;;;;;;;5.63;3.40;;;;;;;;;;5068147;28;20495;-61
2023/09/03 01:12:19;;;;;;;6.13;3.13;;;;;;;;;;5068684;28;20476;-60
2023/09/03 01:14:50;;;;;;;3.90;3.53;;;;;;;;;;5068317;28;20853;-59
2023/09/03 01:17:21;;;;;;;6.80;3.33;;;;;;;;;;5069150;28;20445;-58
2023/09/03 01:19:57;;;;;;;3.47;2.90;;;;;;;;;;5068989;28;20490;-58
2023/09/03 01:22:30;;;;;;;11.43;3.50;;;;;;;;;;5068934;28;20521;-61
2023/09/03 01:25:05;;;;;;;3.70;2.70;;;;;;;;;;5069080;28;20947;-59
2023/09/03 01:27:35;;;;;;;4.47;3.40;;;;;;;;;;5068292;28;20531;-59
2023/09/03 01:30:05;;;;;;;5.37;3.07;;;;;;;;;;5068204;28;20552;-59
2023/09/03 01:32:33;;;;;;;4.60;3.17;;;;;;;;;;5068860;28;20446;-60
2023/09/03 01:35:00;;;;;;;3.87;2.87;;;;;;;;;;5068106;28;21170;-58
2023/09/03 01:37:28;;;;;;;3.83;2.87;;;;;;;;;;5069690;28;20479;-59
2023/09/03 01:39:55;;;;;;;3.37;2.90;;;;;;;;;;5052331;28;20461;-60
2023/09/03 01:42:22;;;;;;;4.20;3.13;;;;;;;;;;5049734;28;20541;-56
2023/09/03 01:44:49;;;;;;;7.33;3.17;;;;;;;;;;5053758;28;20536;-59
2023/09/03 01:47:29;;;;;;;4.23;3.27;;;;;;;;;;5068627;28;20567;-58
2023/09/03 01:50:00;;;;;;;3.80;3.23;;;;;;;;;;5067946;28;20551;-59
2023/09/03 01:52:32;;;;;;;4.77;3.07;;;;;;;;;;5068467;28;20523;-58
2023/09/03 01:54:59;;;;;;;4.57;3.60;;;;;;;;;;5067925;28;20472;-62
2023/09/03 01:57:27;;;;;;;3.50;2.80;;;;;;;;;;5068572;28;20480;-58
2023/09/03 01:59:55;;;;;;;4.67;2.97;;;;;;;;;;5068331;28;20882;-59
2023/09/03 02:02:24;;;;;;;3.80;3.27;;;;;;;;;;5069097;28;20468;-59
2023/09/03 02:04:51;;;;;;;5.50;3.20;;;;;;;;;;5070831;28;20930;-58
2023/09/03 02:07:19;;;;;;;4.00;3.60;;;;;;;;;;5072795;28;20448;-58
2023/09/03 02:09:46;;;;;;;3.43;2.70;;;;;;;;;;5072491;28;20545;-59
2023/09/03 02:12:13;;;;;;;4.60;3.03;;;;;;;;;;5072864;28;20475;-59
2023/09/03 02:14:40;;;;;;;5.50;2.40;;;;;;;;;;5071855;28;20563;-61
2023/09/03 02:17:09;;;;;;;3.87;3.10;;;;;;;;;;5071602;28;20440;-58
2023/09/03 02:19:37;;;;;;;4.07;3.23;;;;;;;;;;5070988;28;20466;-60
2023/09/03 02:22:04;;;;;;;3.80;3.40;;;;;;;;;;5071615;28;20444;-62
2023/09/03 02:24:32;;;;;;;3.40;2.67;;;;;;;;;;5071576;28;21036;-60
2023/09/03 02:27:00;;;;;;;4.90;3.23;;;;;;;;;;5071799;28;21059;-59
2023/09/03 02:29:27;;;;;;;3.77;2.90;;;;;;;;;;5072861;28;20523;-58
2023/09/03 02:31:54;;;;;;;4.07;2.70;;;;;;;;;;5071795;28;20496;-58
2023/09/03 02:34:21;;;;;;;3.67;2.50;;;;;;;;;;5072418;28;20571;-60
2023/09/03 02:36:50;;;;;;;4.13;3.40;;;;;;;;;;5072774;28;20519;-58
2023/09/03 02:39:17;;;;;;;3.17;2.57;;;;;;;;;;5072009;28;21040;-61
2023/09/03 02:41:45;;;;;;;5.37;2.97;;;;;;;;;;5071573;28;20547;-60
2023/09/03 02:44:12;;;;;;;3.47;2.83;;;;;;;;;;5071379;28;20472;-61
2023/09/03 02:46:39;;;;;;;3.63;2.90;;;;;;;;;;5071094;28;20444;-59
2023/09/03 02:49:07;;;;;;;4.43;2.70;;;;;;;;;;5070788;28;20875;-59
2023/09/03 02:51:34;;;;;;;4.10;2.73;;;;;;;;;;5075265;22;20867;-56
2023/09/03 02:54:05;;;;;;;4.03;2.80;;;;;;;;;;5050772;28;20453;-56
2023/09/03 02:56:33;;;;;;;3.57;3.23;;;;;;;;;;5050358;28;20540;-55
2023/09/03 02:59:00;;;;;;;4.90;3.10;;;;;;;;;;5051946;28;20499;-55
2023/09/03 03:01:27;;;;;;;4.53;2.83;;;;;;;;;;5051793;28;20566;-55
2023/09/03 03:03:54;;;;;;;3.70;2.83;;;;;;;;;;5051888;28;20528;-56
2023/09/03 03:06:22;;;;;;;4.37;3.17;;;;;;;;;;5051066;28;20491;-56
2023/09/03 03:08:49;;;;;;;3.33;2.40;;;;;;;;;;5050881;28;20849;-55
2023/09/03 03:11:18;;;;;;;5.33;3.40;;;;;;;;;;5050415;28;20501;-55
2023/09/03 03:13:46;;;;;;;4.23;3.60;;;;;;;;;;5050873;28;20928;-56
2023/09/03 03:16:13;;;;;;;4.83;3.00;;;;;;;;;;5043788;28;20510;-55
2023/09/03 03:18:41;;;;;;;3.93;3.30;;;;;;;;;;5045223;28;20528;-57
2023/09/03 03:21:09;;;;;;;3.57;2.57;;;;;;;;;;5049383;28;20526;-56
2023/09/03 03:23:37;;;;;;;5.07;2.73;;;;;;;;;;5031774;28;20517;-55
2023/09/03 03:26:04;;;;;;;4.80;2.87;;;;;;;;;;5043424;28;20469;-56
2023/09/03 03:28:33;;;;;;;6.20;2.87;;;;;;;;;;5035549;28;20470;-56
2023/09/03 03:31:09;;;;;;;4.67;3.00;;;;;;;;;;5040203;28;20502;-54
2023/09/03 03:33:36;;;;;;;4.10;3.10;;;;;;;;;;5031718;28;20528;-56
2023/09/03 03:36:04;;;;;;;3.83;3.03;;;;;;;;;;5050020;28;20543;-56
2023/09/03 03:38:31;;;;;;;4.40;2.93;;;;;;;;;;5036133;28;20472;-56
2023/09/03 03:41:05;;;;;;;4.93;3.30;;;;;;;;;;5050155;28;20492;-55
2023/09/03 03:43:34;;;;;;;3.63;3.10;;;;;;;;;;5049715;28;20453;-55
2023/09/03 03:46:01;;;;;;;3.97;3.20;;;;;;;;;;5044776;28;20465;-55
2023/09/03 03:48:28;;;;;;;3.60;2.80;;;;;;;;;;5049149;28;20545;-57
2023/09/03 03:50:55;;;;;;;4.83;2.83;;;;;;;;;;5041259;28;20550;-55
2023/09/03 03:53:23;;;;;;;3.43;2.60;;;;;;;;;;5030734;28;20474;-56
2023/09/03 03:55:57;;;;;;;3.80;3.20;;;;;;;;;;5044717;28;20634;-56
2023/09/03 03:58:25;;;;;;;5.70;3.00;;;;;;;;;;5050144;28;20445;-56
2023/09/03 04:00:54;;;;;;;3.87;3.17;;;;;;;;;;5049992;28;20847;-55
2023/09/03 04:03:21;;;;;;;4.33;3.07;;;;;;;;;;5050142;28;20437;-57
2023/09/03 04:05:56;;;;;;;3.90;3.20;;;;;;;;;;5050184;28;20500;-55
2023/09/03 04:08:24;;;;;;;3.60;3.30;;;;;;;;;;5049784;28;20874;-55
2023/09/03 04:10:56;;;;;;;4.40;3.00;;;;;;;;;;5048909;28;20560;-55
2023/09/03 04:13:24;;;;;;;4.00;3.00;;;;;;;;;;5049811;28;20871;-56
2023/09/03 04:15:51;;;;;;;4.40;3.27;;;;;;;;;;5049978;28;20610;-55
2023/09/03 04:18:19;;;;;;;3.70;3.07;;;;;;;;;;5049966;28;20524;-56
2023/09/03 04:20:47;;;;;;;4.33;3.30;;;;;;;;;;5049099;28;20548;-56
2023/09/03 04:23:14;;;;;;;3.40;2.40;;;;;;;;;;5050445;28;20438;-56
2023/09/03 04:25:41;;;;;;;3.97;3.10;;;;;;;;;;5050419;28;20457;-55
2023/09/03 04:28:09;;;;;;;3.60;2.77;;;;;;;;;;5050215;28;20919;-57
2023/09/03 04:30:38;;;;;;;4.20;2.93;;;;;;;;;;5050468;28;20564;-56
2023/09/03 04:33:07;;;;;;;5.40;2.60;;;;;;;;;;5050203;28;20448;-56
2023/09/03 04:35:35;;;;;;;6.67;3.23;;;;;;;;;;5050172;28;20603;-55
2023/09/03 04:38:03;;;;;;;4.90;3.17;;;;;;;;;;5050656;28;20861;-55
2023/09/03 04:40:34;;;;;;;4.23;3.00;;;;;;;;;;5050180;28;20487;-56
2023/09/03 04:43:01;;;;;;;4.13;3.50;;;;;;;;;;5049663;28;21126;-56
2023/09/03 04:45:29;;;;;;;4.23;2.90;;;;;;;;;;5049330;28;20443;-55
2023/09/03 04:47:56;;;;;;;4.10;3.00;;;;;;;;;;5049742;28;20561;-55
2023/09/03 04:50:23;;;;;;;5.90;3.20;;;;;;;;;;5049588;28;20461;-56
2023/09/03 04:52:52;;;;;;;4.27;2.90;;;;;;;;;;5050270;28;20495;-55
2023/09/03 04:55:19;;;;;;;3.73;2.90;;;;;;;;;;5049925;28;20543;-56
2023/09/03 04:57:48;;;;;;;3.60;3.00;;;;;;;;;;5050063;28;20932;-55
2023/09/03 05:00:15;;;;;;;3.50;2.63;;;;;;;;;;5049825;28;20488;-56
2023/09/03 05:02:42;;;;;;;4.60;2.77;;;;;;;;;;5049795;28;20524;-55
2023/09/03 05:05:10;;;;;;;5.90;3.27;;;;;;;;;;5049565;28;20445;-56
2023/09/03 05:07:37;;;;;;;3.73;2.73;;;;;;;;;;5049711;28;20445;-55
2023/09/03 05:10:07;;;;;;;4.10;2.90;;;;;;;;;;5047900;28;20931;-56
2023/09/03 05:12:34;;;;;;;6.33;3.10;;;;;;;;;;5048993;28;20437;-56
2023/09/03 05:15:02;;;;;;;3.47;2.53;;;;;;;;;;5048669;28;20606;-55
2023/09/03 05:17:29;;;;;;;4.27;2.77;;;;;;;;;;5048705;28;20449;-56
2023/09/03 05:19:56;;;;;;;3.97;2.90;;;;;;;;;;5048095;28;20465;-56
2023/09/03 05:22:24;;;;;;;3.80;3.00;;;;;;;;;;5048259;28;20469;-55
2023/09/03 05:24:51;;;;;;;3.70;2.90;;;;;;;;;;5049003;28;20923;-55
2023/09/03 05:27:20;;;;;;;3.83;3.40;;;;;;;;;;5049693;28;20476;-56
2023/09/03 05:29:47;;;;;;;4.30;2.67;;;;;;;;;;5049560;28;21010;-56
2023/09/03 05:32:15;;;;;;;4.00;3.10;;;;;;;;;;5049573;28;20795;-55
2023/09/03 05:34:42;;;;;;;3.67;2.80;;;;;;;;;;5048653;28;20520;-55
2023/09/03 05:37:09;;;;;;;4.83;3.70;;;;;;;;;;5049538;28;20520;-56
2023/09/03 05:39:36;;;;;;;3.97;3.57;;;;;;;;;;5050810;28;20490;-56
2023/09/03 05:42:04;;;;;;;4.40;2.70;;;;;;;;;;5053496;28;20506;-55
2023/09/03 05:44:32;;;;;;;3.97;2.80;;;;;;;;;;5053429;28;20536;-56
2023/09/03 05:46:59;;;;;;;6.10;3.30;;;;;;;;;;5053281;28;20537;-55
2023/09/03 05:49:27;;;;;;;3.67;2.70;;;;;;;;;;5053272;28;20946;-55
2023/09/03 05:51:54;;;;;;;4.23;2.97;;;;;;;;;;5052940;28;20555;-56
2023/09/03 05:54:21;;;;;;;3.70;2.90;;;;;;;;;;5053891;28;20441;-55
2023/09/03 05:56:48;;;;;;;6.00;3.30;;;;;;;;;;5054013;28;20473;-55
2023/09/03 05:59:16;;;;;;;8.03;3.93;;;;;;;;;;5052805;28;20438;-55
2023/09/03 06:01:44;;;;;;;3.87;3.40;;;;;;;;;;5051318;28;20489;-56
2023/09/03 06:04:15;;;;;;;4.20;3.53;;;;;;;;;;5051993;28;20540;-56
2023/09/03 06:06:42;;;;;;;6.10;3.47;;;;;;;;;;5052195;28;20433;-56
2023/09/03 06:09:10;;;;;;;3.93;2.87;;;;;;;;;;5050975;28;20499;-56
2023/09/03 06:11:37;;;;;;;4.20;3.40;;;;;;;;;;5052135;28;20548;-56
2023/09/03 06:14:05;;;;;;;5.80;4.67;;;;;;;;;;5053140;28;20452;-56
2023/09/03 06:16:32;;;;;;;5.70;4.43;;;;;;;;;;5053633;28;20563;-56
2023/09/03 06:19:00;;;;;;;6.03;4.43;;;;;;;;;;5052224;28;20473;-55
2023/09/03 06:21:29;;;;;;;5.07;4.00;;;;;;;;;;5052026;28;20629;-55
2023/09/03 06:23:56;;;;;;;5.20;4.50;;;;;;;;;;5052081;28;20449;-56
2023/09/03 06:26:23;;;;;;;4.77;3.60;;;;;;;;;;5051666;28;20433;-57
2023/09/03 06:28:51;;;;;;;4.70;3.60;;;;;;;;;;5051296;28;20483;-56
2023/09/03 06:31:18;;;;;;;5.00;3.60;;;;;;;;;;5050483;28;20802;-56
2023/09/03 06:33:45;;;;;;;4.93;3.40;;;;;;;;;;5051201;28;20464;-56
2023/09/03 06:36:15;;;;;;;5.10;3.53;;;;;;;;;;5053203;28;20560;-55
2023/09/03 06:38:43;;;;;;;3.60;3.30;;;;;;;;;;5053276;28;20523;-55
2023/09/03 06:41:12;;;;;;;5.20;3.90;;;;;;;;;;5053175;28;20461;-55
2023/09/03 06:43:40;;;;;;;6.60;3.80;;;;;;;;;;5052863;28;20535;-56
2023/09/03 06:46:07;;;;;;;5.80;4.40;;;;;;;;;;5052958;28;20516;-56
2023/09/03 06:48:34;;;;;;;6.63;4.50;;;;;;;;;;5052055;28;20484;-56
2023/09/03 06:51:02;;;;;;;4.93;4.43;;;;;;;;;;5049888;28;20520;-55
2023/09/03 06:53:30;;;;;;;5.27;3.17;;;;;;;;;;5051075;28;20483;-55
2023/09/03 06:55:58;;;;;;;4.50;3.60;;;;;;;;;;5050310;28;20477;-56
2023/09/03 06:58:25;;;;;;;4.10;3.70;;;;;;;;;;5050858;28;20636;-56
2023/09/03 07:00:53;;;;;;;3.90;3.40;;;;;;;;;;5050895;28;20514;-56
2023/09/03 07:03:20;;;;;;;4.00;3.30;;;;;;;;;;5051635;28;20450;-55
2023/09/03 07:05:48;;;;;;;4.13;3.73;;;;;;;;;;5052733;28;20441;-56
2023/09/03 07:08:15;;;;;;;4.47;3.70;;;;;;;;;;5052489;28;20442;-56
2023/09/03 07:10:43;;;;;;;3.77;3.27;;;;;;;;;;5051268;28;20489;-56
2023/09/03 07:13:11;;;;;;;5.00;4.50;;;;;;;;;;5052299;28;20471;-57
2023/09/03 07:15:38;;;;;;;5.30;3.63;;;;;;;;;;5051208;28;20564;-56
2023/09/03 07:18:06;;;;;;;4.37;3.97;;;;;;;;;;5049576;28;20483;-56
2023/09/03 07:20:33;;;;;;;4.00;3.60;;;;;;;;;;5051359;28;20496;-56
2023/09/03 07:23:00;;;;;;;5.70;4.20;;;;;;;;;;5051949;28;20476;-55
2023/09/03 07:25:28;;;;;;;4.90;4.40;;;;;;;;;;5051720;28;20959;-55
2023/09/03 07:27:57;;;;;;;4.70;3.90;;;;;;;;;;5051979;28;20515;-56
2023/09/03 07:30:24;;;;;;;5.17;4.50;;;;;;;;;;5051933;28;20453;-56
2023/09/03 07:32:52;;;;;;;5.40;3.90;;;;;;;;;;5051557;28;20528;-55
2023/09/03 07:35:19;;;;;;;4.77;4.03;;;;;;;;;;5051614;28;20487;-56
2023/09/03 07:37:46;;;;;;;5.03;4.20;;;;;;;;;;5049308;28;20469;-56
2023/09/03 07:40:13;;;;;;;5.50;4.63;;;;;;;;;;5051641;28;20902;-56
2023/09/03 07:42:41;;;;;;;7.57;3.90;;;;;;;;;;5051565;28;20496;-56
2023/09/03 07:45:10;;;;;;;5.57;3.70;;;;;;;;;;5051564;28;20521;-57
2023/09/03 07:47:37;;;;;;;4.40;4.00;;;;;;;;;;5051575;28;20430;-56
2023/09/03 07:50:06;;;;;;;4.87;3.60;;;;;;;;;;5049892;28;20469;-56
2023/09/03 07:52:33;;;;;;;7.77;3.70;;;;;;;;;;5049694;28;20472;-56
2023/09/03 07:55:00;;;;;;;5.70;3.70;;;;;;;;;;5049713;28;20536;-55
2023/09/03 07:57:28;;;;;;;3.93;3.20;;;;;;;;;;5047118;28;20567;-55
2023/09/03 07:59:56;;;;;;;4.03;3.33;;;;;;;;;;5049639;28;20461;-56
2023/09/03 08:02:24;;;;;;;5.10;3.40;;;;;;;;;;5048919;28;20453;-56
2023/09/03 08:04:51;;;;;;;5.47;3.43;;;;;;;;;;5050798;28;20529;-56
2023/09/03 08:07:19;;;;;;;4.83;3.60;;;;;;;;;;5051217;28;20429;-55
2023/09/03 08:09:46;;;;;;;4.40;3.20;;;;;;;;;;5050097;28;20434;-57
2023/09/03 08:12:13;;;;;;;4.60;3.37;;;;;;;;;;5050875;28;20523;-55
2023/09/03 08:14:42;;;;;;;6.30;4.00;;;;;;;;;;5050898;28;20458;-55
2023/09/03 08:17:09;;;;;;;5.90;3.40;;;;;;;;;;5048806;28;20480;-56
2023/09/03 08:19:38;;;;;;;4.40;3.57;;;;;;;;;;5050170;28;20548;-56
2023/09/03 08:22:05;;;;;;;4.30;3.43;;;;;;;;;;5050598;28;20485;-56
2023/09/03 08:24:32;;;;;;;5.60;3.37;;;;;;;;;;5048036;28;20430;-57
2023/09/03 08:26:59;;;;;;;4.23;3.50;;;;;;;;;;5048048;28;20438;-55
2023/09/03 08:29:27;;;;;;;6.43;3.73;;;;;;;;;;5050951;28;20501;-56
2023/09/03 08:31:54;;;;;;;4.10;3.23;;;;;;;;;;5050495;28;20481;-55
2023/09/03 08:34:21;;;;;;;5.70;3.37;;;;;;;;;;5050412;28;20536;-56
2023/09/03 08:36:50;;;;;;;6.70;3.57;;;;;;;;;;5050180;28;20477;-56
2023/09/03 08:39:17;;;;;;;4.33;3.33;;;;;;;;;;5050238;28;20499;-56
2023/09/03 08:41:44;;;;;;;3.87;3.20;;;;;;;;;;5050424;28;20464;-55
2023/09/03 08:44:18;;;;;;;3.47;3.07;;;;;;;;;;5050377;28;20823;-57
2023/09/03 08:46:46;;;;;;;7.10;3.17;;;;;;;;;;5050836;28;20947;-55
2023/09/03 08:49:14;;;;;;;4.40;3.77;;;;;;;;;;5050548;28;20495;-55
2023/09/03 08:51:41;;;;;;;5.93;3.60;;;;;;;;;;5065502;22;20708;-61
2023/09/03 08:54:10;;;;;;;5.70;3.40;;;;;;;;;;5050814;28;20520;-59
2023/09/03 08:56:37;;;;;;;5.47;3.77;;;;;;;;;;5059698;28;20531;-60
2023/09/03 08:59:05;;;;;;;5.20;3.80;;;;;;;;;;5059666;28;20516;-61
2023/09/03 09:01:32;;;;;;;4.30;3.40;;;;;;;;;;5061545;28;20527;-60
2023/09/03 09:04:01;;;;;;;4.20;3.20;;;;;;;;;;5051316;28;20525;-58
2023/09/03 09:06:29;;;;;;;3.50;3.20;;;;;;;;;;5059863;28;20529;-61
2023/09/03 09:08:57;;;;;;;5.07;3.47;;;;;;;;;;5060383;28;20851;-59
2023/09/03 09:11:28;;;;;;;3.30;2.90;;;;;;;;;;5060120;28;20538;-60
2023/09/03 09:13:56;;;;;;;4.93;3.67;;;;;;;;;;5058316;28;20468;-61
2023/09/03 09:16:24;;;;;;;4.97;4.07;;;;;;;;;;5057611;28;20476;-58
2023/09/03 09:18:51;;;;;;;3.63;2.80;;;;;;;;;;5060344;28;20471;-62
2023/09/03 09:21:20;;;;;;;4.73;3.07;;;;;;;;;;5059372;28;20547;-60
2023/09/03 09:23:48;;;;;;;3.43;3.13;;;;;;;;;;5056568;28;20532;-61
2023/09/03 09:26:18;;;;;;;3.90;3.50;;;;;;;;;;5059080;28;20507;-59
2023/09/03 09:29:00;;;;;;;3.80;3.30;;;;;;;;;;5062051;28;20522;-60
2023/09/03 09:31:29;;;;;;;4.20;3.03;;;;;;;;;;5054489;28;20535;-59
2023/09/03 09:33:56;;;;;;;3.87;3.07;;;;;;;;;;5052541;28;20912;-59
2023/09/03 09:36:23;;;;;;;3.60;2.90;;;;;;;;;;5055521;28;20556;-59
2023/09/03 09:38:51;;;;;;;4.23;3.60;;;;;;;;;;5054833;28;20507;-59
2023/09/03 09:41:22;;;;;;;3.93;3.23;;;;;;;;;;5060428;28;20465;-60
2023/09/03 09:43:49;;;;;;;3.97;3.53;;;;;;;;;;5059476;28;20519;-59
2023/09/03 09:46:28;;;;;;;5.40;2.90;;;;;;;;;;5061161;28;20609;-61
2023/09/03 09:48:56;;;;;;;3.70;2.87;;;;;;;;;;5060574;28;20507;-60
2023/09/03 09:51:24;;;;;;;6.07;3.50;;;;;;;;;;5059180;28;20719;-59
2023/09/03 09:53:57;;;;;;;4.07;3.67;;;;;;;;;;5058563;28;20966;-58
2023/09/03 09:56:28;;;;;;;5.87;3.60;;;;;;;;;;5059052;28;20564;-59
2023/09/03 09:58:57;;;;;;;4.77;3.27;;;;;;;;;;5059052;28;20437;-60
2023/09/03 10:01:25;;;;;;;3.67;3.00;;;;;;;;;;5053585;28;20560;-60
2023/09/03 10:03:54;;;;;;;3.83;3.07;;;;;;;;;;5053877;28;20855;-61
2023/09/03 10:06:23;;;;;;;3.83;3.20;;;;;;;;;;5049125;28;20536;-59
2023/09/03 10:08:52;;;;;;;4.20;3.47;;;;;;;;;;5055034;28;20468;-60
2023/09/03 10:11:19;;;;;;;6.37;3.57;;;;;;;;;;5054514;28;20461;-59
2023/09/03 10:13:48;;;;;;;4.40;3.50;;;;;;;;;;5050981;28;20480;-58
2023/09/03 10:16:17;;;;;;;4.50;3.50;;;;;;;;;;5057125;28;20973;-59
2023/09/03 10:18:46;;;;;;;3.70;2.87;;;;;;;;;;5056327;28;20890;-58
2023/09/03 10:21:15;;;;;;;4.10;3.50;;;;;;;;;;5054363;28;20575;-59
2023/09/03 10:23:47;;;;;;;8.63;3.57;;;;;;;;;;5053636;28;20532;-58
2023/09/03 10:26:15;;;;;;;4.10;3.27;;;;;;;;;;5049237;28;20471;-60
2023/09/03 10:28:45;;;;;;;5.00;3.83;;;;;;;;;;5059378;28;20991;-59
2023/09/03 10:31:12;;;;;;;3.40;2.70;;;;;;;;;;5058140;28;21012;-61
2023/09/03 10:33:41;;;;;;;6.00;3.50;;;;;;;;;;5056034;28;20832;-61
2023/09/03 10:36:17;;;;;;;5.43;4.43;;;;;;;;;;5055722;28;20437;-62
2023/09/03 10:38:44;;;;;;;3.90;3.17;;;;;;;;;;5054378;28;20443;-61
2023/09/03 10:41:17;;;;;;;4.03;3.30;;;;;;;;;;5057572;28;20873;-59
2023/09/03 10:43:45;;;;;;;4.00;3.20;;;;;;;;;;5052176;28;20514;-60
2023/09/03 10:46:12;;;;;;;4.07;3.67;;;;;;;;;;5042390;28;20503;-59
2023/09/03 10:48:40;;;;;;;3.97;3.07;;;;;;;;;;5034759;28;20568;-60
2023/09/03 10:51:07;;;;;;;3.97;3.43;;;;;;;;;;5033865;28;21091;-61
2023/09/03 10:53:37;;;;;;;3.90;3.23;;;;;;;;;;5032993;28;21026;-60
2023/09/03 10:56:09;;;;;;;4.30;3.53;;;;;;;;;;5051343;28;20507;-59
2023/09/03 10:58:36;;;;;;;4.93;2.93;;;;;;;;;;5055554;28;20476;-59
2023/09/03 11:01:18;;;;;;;3.93;3.13;;;;;;;;;;5056097;28;20462;-57
2023/09/03 11:03:49;;;;;;;4.07;3.40;;;;;;;;;;5054782;28;20910;-59
2023/09/03 11:06:17;;;;;;;3.90;3.37;;;;;;;;;;5055973;28;20461;-60
2023/09/03 11:08:46;;;;;;;2.93;2.50;;;;;;;;;;5056507;28;20519;-59
2023/09/03 11:11:19;;;;;;;4.17;3.47;;;;;;;;;;5060288;28;20539;-59
2023/09/03 11:13:50;;;;;;;4.80;3.17;;;;;;;;;;5060483;28;20440;-60
2023/09/03 11:16:17;;;;;;;3.90;2.87;;;;;;;;;;5054143;28;20457;-60
2023/09/03 11:18:48;;;;;;;3.37;3.00;;;;;;;;;;5054856;28;20517;-60
2023/09/03 11:21:16;;;;;;;3.63;3.20;;;;;;;;;;5053919;28;20802;-57
2023/09/03 11:23:58;;;;;;;3.73;3.03;;;;;;;;;;5053424;28;20523;-58
2023/09/03 11:26:26;;;;;;;5.50;3.30;;;;;;;;;;5053153;28;21063;-60
2023/09/03 11:28:54;;;;;;;3.83;3.50;;;;;;;;;;5055071;28;20868;-59
2023/09/03 11:31:21;;;;;;;4.40;3.00;;;;;;;;;;5053255;28;20552;-58
2023/09/03 11:33:48;;;;;;;3.87;3.27;;;;;;;;;;5054070;28;20445;-58
2023/09/03 11:36:15;;;;;;;3.50;2.93;;;;;;;;;;5057596;28;20472;-59
2023/09/03 11:38:43;;;;;;;3.60;2.83;;;;;;;;;;5058551;28;20560;-59
2023/09/03 11:41:11;;;;;;;3.47;2.80;;;;;;;;;;5057948;28;20854;-59
2023/09/03 11:43:40;;;;;;;4.13;3.37;;;;;;;;;;5058158;28;20464;-57
2023/09/03 11:46:12;;;;;;;3.63;2.77;;;;;;;;;;5058181;28;20931;-59
2023/09/03 11:48:40;;;;;;;4.20;2.67;;;;;;;;;;5058274;28;20429;-60
2023/09/03 11:51:08;;;;;;;3.50;2.90;;;;;;;;;;5058034;28;20553;-60
2023/09/03 11:53:47;;;;;;;3.43;2.80;;;;;;;;;;5057909;28;20438;-60
2023/09/03 11:56:17;;;;;;;3.70;3.03;;;;;;;;;;5061115;28;20444;-58
2023/09/03 11:58:46;;;;;;;4.07;2.80;;;;;;;;;;5069017;28;20508;-57
2023/09/03 12:01:14;;;;;;;3.67;2.90;;;;;;;;;;5056671;28;20975;-58
2023/09/03 12:03:42;;;;;;;3.90;2.87;;;;;;;;;;5048568;28;20448;-59
2023/09/03 12:06:09;;;;;;;3.93;2.63;;;;;;;;;;5048719;28;20524;-59
2023/09/03 12:08:37;;;;;;;3.33;2.97;;;;;;;;;;5048443;28;20541;-61
2023/09/03 12:11:04;;;;;;;3.77;3.30;;;;;;;;;;5048254;28;20461;-59
2023/09/03 12:13:32;;;;;;;4.23;3.00;;;;;;;;;;5056174;28;20537;-61
2023/09/03 12:16:07;;;;;;;3.43;2.80;;;;;;;;;;5067731;28;20513;-61
2023/09/03 12:18:35;;;;;;;3.93;2.93;;;;;;;;;;5049859;28;20500;-60
2023/09/03 12:21:03;;;;;;;3.53;3.10;;;;;;;;;;5051009;28;20763;-60
2023/09/03 12:23:30;;;;;;;3.77;3.23;;;;;;;;;;5049599;28;20444;-59
2023/09/03 12:25:57;;;;;;;6.10;3.40;;;;;;;;;;5062005;28;20490;-56
2023/09/03 12:28:35;;;;;;;3.60;2.93;;;;;;;;;;5049278;28;20461;-60
2023/09/03 12:31:03;;;;;;;4.87;2.83;;;;;;;;;;5051782;28;20464;-60
2023/09/03 12:33:46;;;;;;;3.57;2.90;;;;;;;;;;5058493;28;20928;-59
2023/09/03 12:36:14;;;;;;;6.00;3.30;;;;;;;;;;5057362;28;20740;-60
2023/09/03 12:38:51;;;;;;;4.30;2.70;;;;;;;;;;5058771;28;20500;-58
2023/09/03 12:41:19;;;;;;;3.97;3.40;;;;;;;;;;5055708;28;20967;-60
2023/09/03 12:43:46;;;;;;;4.07;3.03;;;;;;;;;;5053243;28;20528;-60
2023/09/03 12:46:13;;;;;;;4.50;3.10;;;;;;;;;;5056040;28;20464;-59
2023/09/03 12:48:41;;;;;;;4.50;3.30;;;;;;;;;;5068476;28;20558;-60
2023/09/03 12:51:10;;;;;;;3.33;2.93;;;;;;;;;;5055773;28;20469;-59
2023/09/03 12:53:38;;;;;;;3.40;2.90;;;;;;;;;;5048293;28;20869;-59
2023/09/03 12:56:06;;;;;;;4.30;3.30;;;;;;;;;;5049626;28;20812;-58
2023/09/03 12:58:33;;;;;;;6.43;3.50;;;;;;;;;;5050395;28;20559;-60
2023/09/03 13:01:01;;;;;;;3.80;3.00;;;;;;;;;;5050333;28;20501;-59
2023/09/03 13:03:28;;;;;;;4.10;2.80;;;;;;;;;;5050697;28;21039;-58
2023/09/03 13:05:56;;;;;;;3.60;2.90;;;;;;;;;;5050007;28;20524;-59
2023/09/03 13:08:25;;;;;;;4.03;3.17;;;;;;;;;;5056258;28;20440;-61
2023/09/03 13:10:52;;;;;;;4.70;2.80;;;;;;;;;;5052916;28;20551;-58
2023/09/03 13:13:19;;;;;;;3.60;3.07;;;;;;;;;;5057365;28;20783;-59
2023/09/03 13:15:47;;;;;;;4.60;3.10;;;;;;;;;;5058486;28;20536;-58
2023/09/03 13:18:14;;;;;;;5.93;2.80;;;;;;;;;;5047719;28;20565;-60
2023/09/03 13:20:43;;;;;;;4.03;2.67;;;;;;;;;;5049306;28;20445;-60
2023/09/03 13:23:11;;;;;;;3.77;2.70;;;;;;;;;;5050044;28;20434;-59
2023/09/03 13:25:40;;;;;;;4.07;2.83;;;;;;;;;;5062651;28;20770;-58
2023/09/03 13:28:07;;;;;;;5.93;3.40;;;;;;;;;;5070493;28;20478;-59
2023/09/03 13:30:35;;;;;;;5.60;2.90;;;;;;;;;;5068841;28;21119;-60
2023/09/03 13:33:03;;;;;;;4.80;2.57;;;;;;;;;;5070395;28;20523;-60
2023/09/03 13:35:30;;;;;;;4.10;2.60;;;;;;;;;;5070295;28;20890;-60
2023/09/03 13:37:57;;;;;;;6.63;3.20;;;;;;;;;;5060441;28;20500;-60
2023/09/03 13:40:25;;;;;;;2.83;2.40;;;;;;;;;;5050650;28;20469;-61
2023/09/03 13:42:53;;;;;;;3.13;2.40;;;;;;;;;;5061674;28;20464;-59
2023/09/03 13:45:22;;;;;;;4.20;2.63;;;;;;;;;;5050692;28;20528;-58
2023/09/03 13:47:49;;;;;;;4.03;3.00;;;;;;;;;;5050341;28;20928;-59
2023/09/03 13:50:16;;;;;;;3.97;2.80;;;;;;;;;;5052336;28;20448;-59
2023/09/03 13:52:43;;;;;;;3.27;2.57;;;;;;;;;;5042529;28;20470;-60
2023/09/03 13:55:11;;;;;;;3.73;2.63;;;;;;;;;;5028751;28;20532;-60
2023/09/03 13:57:38;;;;;;;3.40;2.53;;;;;;;;;;5028911;28;20561;-59
2023/09/03 14:00:07;;;;;;;5.00;3.10;;;;;;;;;;5056349;28;20440;-60
2023/09/03 14:02:34;;;;;;;4.00;2.80;;;;;;;;;;5073711;28;21002;-60
2023/09/03 14:05:02;;;;;;;3.33;2.77;;;;;;;;;;5068755;28;20516;-60
2023/09/03 14:07:29;;;;;;;4.27;3.07;;;;;;;;;;5061757;28;20888;-58
2023/09/03 14:09:56;;;;;;;3.87;2.87;;;;;;;;;;5064372;28;20541;-59
2023/09/03 14:12:25;;;;;;;3.40;2.43;;;;;;;;;;5058124;28;20946;-58
2023/09/03 14:14:52;;;;;;;3.67;2.93;;;;;;;;;;5056014;28;20449;-58
2023/09/03 14:17:21;;;;;;;3.17;2.10;;;;;;;;;;5053740;28;20472;-59
2023/09/03 14:19:48;;;;;;;5.23;2.70;;;;;;;;;;5053795;28;20539;-58
2023/09/03 14:22:15;;;;;;;3.33;2.60;;;;;;;;;;5051937;28;21203;-59
2023/09/03 14:24:43;;;;;;;3.70;2.43;;;;;;;;;;5052915;28;20477;-61
2023/09/03 14:27:11;;;;;;;3.53;2.57;;;;;;;;;;5053487;28;20472;-58
2023/09/03 14:29:38;;;;;;;4.00;2.53;;;;;;;;;;5054019;28;20479;-59
2023/09/03 14:32:06;;;;;;;4.50;2.43;;;;;;;;;;5053545;28;20453;-60
2023/09/03 14:34:34;;;;;;;3.63;2.67;;;;;;;;;;5053438;28;20528;-59
2023/09/03 14:37:02;;;;;;;3.53;2.90;;;;;;;;;;5053707;28;20520;-60
2023/09/03 14:39:29;;;;;;;4.30;2.63;;;;;;;;;;5053556;28;20484;-62
2023/09/03 14:41:57;;;;;;;3.10;2.33;;;;;;;;;;5053452;28;20518;-59
2023/09/03 14:44:24;;;;;;;2.90;1.80;;;;;;;;;;5053155;28;20483;-60
2023/09/03 14:46:51;;;;;;;4.40;2.10;;;;;;;;;;5053274;28;20525;-60
2023/09/03 14:49:21;;;;;;;4.53;2.43;;;;;;;;;;5053480;28;20488;-60